Darstellungsparameter: Aktuell verwendete Einstellungen:
Skalierung der Graphiken ... ?
xyx+y,   Skalierungsfaktor:      Skalierung: Modus: x, Faktor: 1
Darstellungszeitraum ... ?
Vom - - bis: - -   Zeitraum: 22.07.2020 - 24.07.2020
Min/Max/Avg-Anzeige ... ?
Zeige MMA aktuell
Zeige MMA Monat
Zeige MMA alles
Zeige --A aktuell
Zeige --A Monat
Zeige --A alles
Keine MMA-Anzeige
MMA:
Average (ber die Originaldaten)
MMA-Basis: 22.07.2020 - 24.07.2020
Quicknavigation für Darstellung... ?
Tage:      1T, 2T, 3T, 5T -1T -2T -3T -5T +1T +2T +3T +5T
Wochen: 1W, 2W, 3W -1W -2W -3W +1W +2W +3W
Monate: 1M, 3M, 6M -1M -3M -6M +1M +3M +6M
Jahre:    1J, 3J, 5J, 10J -1J -3J -5J -10J +1J +3J +5J +10J
Nutze für die Darstellung ... ?
Originaldaten oder Mittelwerte auf ...
Stundenbasis Tagesbasis Wochenbasis
Monatsbasis Jahresbasis      Datenbasis: Original-Daten
Darstellen als:
Statistik (Auto) Statistik J:M      Darstellung:
Zur Graphik,    zurück zur Übersicht aller Sensoren.
 
Tabellarische Datenbersicht: ?
 
Sensor: Nr:Datum:Temp:Abs-Feuchte:Windchill:Wind:
Aussen-T/F 1 22-07-2020 00:00:00 14.2 C 8.55 g/m*3 14.2 C 0 km/h
2 22-07-2020 00:05:00 14.1 C 8.62 g/m*3 14.1 C 0 km/h
3 22-07-2020 00:10:00 13.9 C 8.51 g/m*3 13.9 C 0 km/h
4 22-07-2020 00:15:00 13.8 C 8.58 g/m*3 13.8 C 0 km/h
5 22-07-2020 00:20:00 13.6 C 8.47 g/m*3 13.6 C 0 km/h
6 22-07-2020 00:25:00 13.5 C 8.54 g/m*3 13.5 C 0 km/h
7 22-07-2020 00:30:00 13.3 C 8.55 g/m*3 13.3 C 0 km/h
8 22-07-2020 00:35:00 13.2 C 8.38 g/m*3 13.2 C 0 km/h
9 22-07-2020 00:40:00 13.1 C 8.56 g/m*3 13.1 C 0 km/h
10 22-07-2020 00:45:00 12.9 C 8.45 g/m*3 12.9 C 0 km/h
11 22-07-2020 00:50:00 12.8 C 8.51 g/m*3 12.8 C 0 km/h
12 22-07-2020 00:55:00 12.7 C 8.46 g/m*3 12.7 C 0 km/h
13 22-07-2020 01:00:00 12.6 C 8.52 g/m*3 12.6 C 0 km/h
14 22-07-2020 01:05:00 12.5 C 8.36 g/m*3 12.5 C 0 km/h
15 22-07-2020 01:10:00 12.4 C 8.41 g/m*3 12.4 C 0 km/h
16 22-07-2020 01:15:00 12.3 C 8.36 g/m*3 12.3 C 0 km/h
17 22-07-2020 01:20:00 12.2 C 8.42 g/m*3 12.2 C 0 km/h
18 22-07-2020 01:25:00 12.1 C 8.36 g/m*3 12.1 C 0 km/h
19 22-07-2020 01:30:00 11.9 C 8.26 g/m*3 11.9 C 0 km/h
20 22-07-2020 01:35:00 11.8 C 8.31 g/m*3 11.8 C 0 km/h
21 22-07-2020 01:40:00 11.7 C 8.26 g/m*3 11.7 C 0 km/h
22 22-07-2020 01:45:00 11.6 C 8.21 g/m*3 11.6 C 0 km/h
23 22-07-2020 01:50:00 11.6 C 8.32 g/m*3 11.6 C 0 km/h
24 22-07-2020 01:55:00 11.4 C 8.21 g/m*3 11.4 C 0 km/h
25 22-07-2020 02:00:00 11.4 C 8.21 g/m*3 11.4 C 0 km/h
Sensor: Nr:Datum:Temp:Abs-Feuchte:Windchill:Wind:
Aussen-T/F 26 22-07-2020 02:05:00 11.3 C 8.16 g/m*3 11.3 C 0 km/h
27 22-07-2020 02:10:00 11.3 C 8.26 g/m*3 11.3 C 0 km/h
28 22-07-2020 02:15:00 11.2 C 8.21 g/m*3 11.2 C 0 km/h
29 22-07-2020 02:20:00 11.1 C 8.16 g/m*3 11.1 C 0 km/h
30 22-07-2020 02:25:00 11.1 C 8.16 g/m*3 11.1 C 0 km/h
31 22-07-2020 02:30:00 11 C 8.11 g/m*3 11 C 0 km/h
32 22-07-2020 02:35:00 10.9 C 8.16 g/m*3 10.9 C 0 km/h
33 22-07-2020 02:40:00 10.8 C 8.11 g/m*3 10.8 C 0 km/h
34 22-07-2020 02:45:00 10.8 C 8.11 g/m*3 10.8 C 0 km/h
35 22-07-2020 02:50:00 10.7 C 8.05 g/m*3 10.7 C 0 km/h
36 22-07-2020 02:55:00 10.7 C 8.15 g/m*3 10.7 C 0 km/h
37 22-07-2020 03:00:00 10.6 C 8.1 g/m*3 10.6 C 0 km/h
38 22-07-2020 03:05:00 10.6 C 8.1 g/m*3 10.6 C 0 km/h
39 22-07-2020 03:10:00 10.5 C 8.05 g/m*3 10.5 C 0 km/h
40 22-07-2020 03:15:00 10.4 C 8.1 g/m*3 10.4 C 0 km/h
41 22-07-2020 03:20:00 10.4 C 8.1 g/m*3 10.4 C 0 km/h
42 22-07-2020 03:25:00 10.3 C 8.04 g/m*3 10.3 C 0 km/h
43 22-07-2020 03:30:00 10.3 C 8.04 g/m*3 10.3 C 0 km/h
44 22-07-2020 03:35:00 10.2 C 8.09 g/m*3 10.2 C 0 km/h
45 22-07-2020 03:40:00 10.2 C 8.09 g/m*3 10.2 C 0 km/h
46 22-07-2020 03:45:00 10.1 C 8.04 g/m*3 10.1 C 0 km/h
47 22-07-2020 03:50:00 10.1 C 8.04 g/m*3 10.1 C 0 km/h
48 22-07-2020 03:55:00 10 C 8.08 g/m*3 10 C 0 km/h
49 22-07-2020 04:00:00 9.9 C 8.03 g/m*3 9.9 C 0 km/h
50 22-07-2020 04:05:00 9.9 C 8.03 g/m*3 9.9 C 0 km/h
Sensor: Nr:Datum:Temp:Abs-Feuchte:Windchill:Wind:
Aussen-T/F 51 22-07-2020 04:10:00 9.8 C 7.98 g/m*3 9.8 C 0 km/h
52 22-07-2020 04:15:00 9.8 C 7.98 g/m*3 9.8 C 0 km/h
53 22-07-2020 04:20:00 9.7 C 8.02 g/m*3 9.7 C 0 km/h
54 22-07-2020 04:25:00 9.7 C 8.02 g/m*3 9.7 C 0 km/h
55 22-07-2020 04:30:00 9.6 C 7.97 g/m*3 9.6 C 0 km/h
56 22-07-2020 04:35:00 9.6 C 7.97 g/m*3 9.6 C 0 km/h
57 22-07-2020 04:40:00 9.6 C 7.97 g/m*3 9.6 C 0 km/h
58 22-07-2020 04:45:00 9.5 C 8.01 g/m*3 9.5 C 0 km/h
59 22-07-2020 04:50:00 9.4 C 7.96 g/m*3 9.4 C 0 km/h
60 22-07-2020 04:55:00 9.4 C 7.96 g/m*3 9.4 C 0 km/h
61 22-07-2020 05:00:00 9.4 C 7.96 g/m*3 9.4 C 0 km/h
62 22-07-2020 05:05:00 9.3 C 7.91 g/m*3 9.3 C 0 km/h
63 22-07-2020 05:10:00 9.3 C 7.91 g/m*3 9.3 C 0 km/h
64 22-07-2020 05:15:00 9.3 C 8 g/m*3 9.3 C 0 km/h
65 22-07-2020 05:20:00 9.3 C 8 g/m*3 9.3 C 0 km/h
66 22-07-2020 05:25:00 9.3 C 8 g/m*3 9.3 C 0 km/h
67 22-07-2020 05:30:00 9.3 C 8 g/m*3 9.3 C 0 km/h
68 22-07-2020 05:35:00 9.2 C 7.95 g/m*3 9.2 C 0 km/h
69 22-07-2020 05:40:00 9.2 C 7.95 g/m*3 9.2 C 0 km/h
70 22-07-2020 05:45:00 9.1 C 7.9 g/m*3 9.1 C 0 km/h
71 22-07-2020 05:50:00 9.1 C 7.9 g/m*3 9.1 C 0 km/h
72 22-07-2020 05:55:00 9.1 C 7.99 g/m*3 9.1 C 0 km/h
73 22-07-2020 06:00:00 9.1 C 7.99 g/m*3 9.1 C 0 km/h
74 22-07-2020 06:05:00 9.1 C 7.99 g/m*3 9.1 C 0 km/h
75 22-07-2020 06:10:00 9.1 C 8.07 g/m*3 9.1 C 0 km/h
Sensor: Nr:Datum:Temp:Abs-Feuchte:Windchill:Wind:
Aussen-T/F 76 22-07-2020 06:15:00 9.1 C 8.07 g/m*3 9.1 C 0 km/h
77 22-07-2020 06:20:00 9.1 C 8.07 g/m*3 9.1 C 0 km/h
78 22-07-2020 06:25:00 9.2 C 8.13 g/m*3 9.2 C 0 km/h
79 22-07-2020 06:30:00 9.1 C 8.07 g/m*3 9.1 C 0 km/h
80 22-07-2020 06:35:00 9.1 C 8.07 g/m*3 9.1 C 0 km/h
81 22-07-2020 06:40:00 9.2 C 8.13 g/m*3 9.2 C 0 km/h
82 22-07-2020 06:45:00 9.2 C 8.13 g/m*3 9.2 C 0 km/h
83 22-07-2020 06:50:00 9.2 C 8.13 g/m*3 9.2 C 0 km/h
84 22-07-2020 06:55:00 9.2 C 8.13 g/m*3 9.2 C 0 km/h
85 22-07-2020 07:00:00 9.2 C 8.13 g/m*3 9.2 C 0 km/h
86 22-07-2020 07:05:00 9.3 C 8.18 g/m*3 9.3 C 0 km/h
87 22-07-2020 07:10:00 9.3 C 8.27 g/m*3 9.3 C 0 km/h
88 22-07-2020 07:15:00 9.3 C 8.27 g/m*3 9.3 C 0 km/h
89 22-07-2020 07:20:00 9.4 C 8.32 g/m*3 9.4 C 0 km/h
90 22-07-2020 07:25:00 9.4 C 8.32 g/m*3 9.4 C 0 km/h
91 22-07-2020 07:30:00 9.5 C 8.37 g/m*3 9.5 C 0 km/h
92 22-07-2020 07:35:00 9.6 C 8.43 g/m*3 9.6 C 0 km/h
93 22-07-2020 07:40:00 9.7 C 8.48 g/m*3 9.7 C 0 km/h
94 22-07-2020 07:45:00 9.8 C 8.63 g/m*3 9.8 C 0 km/h
95 22-07-2020 07:50:00 9.8 C 8.63 g/m*3 9.8 C 0 km/h
96 22-07-2020 07:55:00 10 C 8.74 g/m*3 10 C 0 km/h
97 22-07-2020 08:00:00 10.2 C 8.85 g/m*3 10.2 C 0 km/h
98 22-07-2020 08:05:00 10.3 C 8.91 g/m*3 10.3 C 0 km/h
99 22-07-2020 08:10:00 10.5 C 9.02 g/m*3 10.5 C 0 km/h
100 22-07-2020 08:15:00 10.7 C 9.13 g/m*3 10.7 C 0 km/h
Sensor: Nr:Datum:Temp:Abs-Feuchte:Windchill:Wind:
Aussen-T/F 101 22-07-2020 08:20:00 10.8 C 9.19 g/m*3 10.8 C 0 km/h
102 22-07-2020 08:25:00 10.9 C 9.25 g/m*3 10.9 C 0 km/h
103 22-07-2020 08:30:00 10.9 C 9.25 g/m*3 10.9 C 0 km/h
104 22-07-2020 08:35:00 11.1 C 9.37 g/m*3 11.1 C 0 km/h
105 22-07-2020 08:40:00 11.2 C 9.43 g/m*3 11.2 C 0 km/h
106 22-07-2020 08:45:00 11.3 C 9.49 g/m*3 11.3 C 0 km/h
107 22-07-2020 08:50:00 11.5 C 9.5 g/m*3 11.5 C 0 km/h
108 22-07-2020 08:55:00 11.7 C 9.62 g/m*3 11.7 C 0 km/h
109 22-07-2020 09:00:00 11.8 C 9.68 g/m*3 11.8 C 0 km/h
110 22-07-2020 09:05:00 11.9 C 9.74 g/m*3 11.9 C 0 km/h
111 22-07-2020 09:10:00 12.1 C 9.76 g/m*3 12.1 C 0 km/h
112 22-07-2020 09:15:00 12.3 C 9.88 g/m*3 12.3 C 0 km/h
113 22-07-2020 09:20:00 12.4 C 9.83 g/m*3 12.4 C 0 km/h
114 22-07-2020 09:25:00 12.5 C 9.78 g/m*3 12.5 C 0 km/h
115 22-07-2020 09:30:00 12.7 C 9.8 g/m*3 12.7 C 0 km/h
116 22-07-2020 09:35:00 12.8 C 9.74 g/m*3 12.8 C 0 km/h
117 22-07-2020 09:40:00 13.3 C 9.94 g/m*3 13.3 C 3.2 km/h
118 22-07-2020 09:45:00 13.6 C 9.89 g/m*3 13.6 C 3.2 km/h
119 22-07-2020 09:50:00 13.9 C 9.95 g/m*3 13.9 C 1.6 km/h
120 22-07-2020 09:55:00 14.2 C 9.89 g/m*3 14.2 C 4.8 km/h
121 22-07-2020 10:00:00 14.6 C 10.01 g/m*3 14.6 C 1.6 km/h
122 22-07-2020 10:05:00 14.8 C 10.01 g/m*3 14.8 C 1.6 km/h
123 22-07-2020 10:10:00 15 C 10.13 g/m*3 15 C 1.6 km/h
124 22-07-2020 10:15:00 15.3 C 10.19 g/m*3 15.3 C 1.6 km/h
125 22-07-2020 10:20:00 15.4 C 10.12 g/m*3 15.4 C 3.2 km/h
Sensor: Nr:Datum:Temp:Abs-Feuchte:Windchill:Wind:
Aussen-T/F 126 22-07-2020 10:25:00 15.7 C 9.9 g/m*3 15.7 C 3.2 km/h
127 22-07-2020 10:30:00 16.1 C 10.14 g/m*3 16.1 C 3.2 km/h
128 22-07-2020 10:35:00 16.5 C 9.83 g/m*3 16.5 C 4.8 km/h
129 22-07-2020 10:40:00 16.9 C 9.64 g/m*3 16.9 C 3.2 km/h
130 22-07-2020 10:45:00 17.3 C 9.87 g/m*3 17.3 C 4.8 km/h
131 22-07-2020 10:50:00 17.7 C 9.51 g/m*3 17.7 C 4.8 km/h
132 22-07-2020 10:55:00 17.9 C 9.62 g/m*3 17.9 C 4.8 km/h
133 22-07-2020 11:00:00 18.3 C 9.69 g/m*3 18.3 C 4.8 km/h
134 22-07-2020 11:05:00 18.6 C 9.71 g/m*3 18.6 C 4.8 km/h
135 22-07-2020 11:10:00 18.7 C 9.45 g/m*3 18.7 C 1.6 km/h
136 22-07-2020 11:15:00 18.8 C 9.34 g/m*3 18.8 C 4.8 km/h
137 22-07-2020 11:20:00 18.9 C 9.23 g/m*3 18.9 C 3.2 km/h
138 22-07-2020 11:25:00 19.1 C 9.18 g/m*3 19.1 C 3.2 km/h
139 22-07-2020 11:30:00 19.3 C 8.96 g/m*3 19.3 C 1.6 km/h
140 22-07-2020 11:35:00 19.4 C 8.51 g/m*3 19.4 C 8.1 km/h
141 22-07-2020 11:40:00 19.7 C 8.66 g/m*3 19.7 C 8.1 km/h
142 22-07-2020 11:45:00 19.8 C 8.71 g/m*3 19.8 C 3.2 km/h
143 22-07-2020 11:50:00 19.9 C 8.59 g/m*3 19.9 C 6.4 km/h
144 22-07-2020 11:55:00 20.1 C 8.52 g/m*3 20.1 C 3.2 km/h
145 22-07-2020 12:00:00 20.1 C 8.87 g/m*3 20.1 C 4.8 km/h
146 22-07-2020 12:05:00 20.2 C 8.74 g/m*3 20.2 C 6.4 km/h
147 22-07-2020 12:10:00 20.4 C 8.49 g/m*3 20.4 C 11.3 km/h
148 22-07-2020 12:15:00 20.6 C 8.23 g/m*3 20.6 C 8.1 km/h
149 22-07-2020 12:20:00 20.8 C 8.33 g/m*3 20.8 C 8.1 km/h
150 22-07-2020 12:25:00 20.7 C 8.28 g/m*3 20.7 C 6.4 km/h
Sensor: Nr:Datum:Temp:Abs-Feuchte:Windchill:Wind:
Aussen-T/F 151 22-07-2020 12:30:00 20.7 C 8.46 g/m*3 20.7 C 6.4 km/h
152 22-07-2020 12:35:00 20.9 C 8.01 g/m*3 20.9 C 9.7 km/h
153 22-07-2020 12:40:00 21.1 C 7.55 g/m*3 21.1 C 4.8 km/h
154 22-07-2020 12:45:00 21.2 C 6.86 g/m*3 21.2 C 8.1 km/h
155 22-07-2020 12:50:00 21.3 C 7.27 g/m*3 21.3 C 6.4 km/h
156 22-07-2020 12:55:00 21.4 C 7.31 g/m*3 21.4 C 8.1 km/h
157 22-07-2020 13:00:00 21.6 C 7.59 g/m*3 21.6 C 9.7 km/h
158 22-07-2020 13:05:00 21.7 C 7.44 g/m*3 21.7 C 12.9 km/h
159 22-07-2020 13:10:00 21.7 C 7.63 g/m*3 21.7 C 9.7 km/h
160 22-07-2020 13:15:00 21.6 C 7.4 g/m*3 21.6 C 4.8 km/h
161 22-07-2020 13:20:00 21.6 C 7.78 g/m*3 21.6 C 3.2 km/h
162 22-07-2020 13:25:00 21.7 C 7.82 g/m*3 21.7 C 6.4 km/h
163 22-07-2020 13:30:00 21.9 C 7.72 g/m*3 21.9 C 9.7 km/h
164 22-07-2020 13:35:00 22.1 C 7.81 g/m*3 22.1 C 8.1 km/h
165 22-07-2020 13:40:00 22.2 C 7.85 g/m*3 22.2 C 9.7 km/h
166 22-07-2020 13:45:00 22.3 C 7.9 g/m*3 22.3 C 9.7 km/h
167 22-07-2020 13:50:00 22.3 C 7.7 g/m*3 22.3 C 12.9 km/h
168 22-07-2020 13:55:00 22.4 C 7.75 g/m*3 22.4 C 8.1 km/h
169 22-07-2020 14:00:00 22.5 C 7.99 g/m*3 22.5 C 8.1 km/h
170 22-07-2020 14:05:00 22.7 C 8.08 g/m*3 22.7 C 12.9 km/h
171 22-07-2020 14:10:00 22.7 C 7.88 g/m*3 22.7 C 4.8 km/h
172 22-07-2020 14:15:00 22.8 C 7.72 g/m*3 22.8 C 3.2 km/h
173 22-07-2020 14:20:00 22.8 C 7.92 g/m*3 22.8 C 4.8 km/h
174 22-07-2020 14:25:00 22.9 C 7.36 g/m*3 22.9 C 12.9 km/h
175 22-07-2020 14:30:00 23 C 7.6 g/m*3 23 C 11.3 km/h
Sensor: Nr:Datum:Temp:Abs-Feuchte:Windchill:Wind:
Aussen-T/F 176 22-07-2020 14:35:00 23.3 C 7.53 g/m*3 23.3 C 9.7 km/h
177 22-07-2020 14:40:00 23.4 C 7.57 g/m*3 23.4 C 9.7 km/h
178 22-07-2020 14:45:00 23.6 C 7.44 g/m*3 23.6 C 9.7 km/h
179 22-07-2020 14:50:00 23.8 C 7.31 g/m*3 23.8 C 6.4 km/h
180 22-07-2020 14:55:00 23.8 C 7.53 g/m*3 23.8 C 6.4 km/h
181 22-07-2020 15:00:00 23.9 C 7.79 g/m*3 23.9 C 12.9 km/h
182 22-07-2020 15:05:00 24.1 C 7.44 g/m*3 24.1 C 9.7 km/h
183 22-07-2020 15:10:00 24.1 C 7.44 g/m*3 24.1 C 8.1 km/h
184 22-07-2020 15:15:00 24.1 C 7.66 g/m*3 24.1 C 6.4 km/h
185 22-07-2020 15:20:00 24.1 C 7.66 g/m*3 24.1 C 6.4 km/h
186 22-07-2020 15:25:00 24.2 C 8.14 g/m*3 24.2 C 11.3 km/h
187 22-07-2020 15:30:00 24.4 C 8.01 g/m*3 24.4 C 16.1 km/h
188 22-07-2020 15:35:00 24.5 C 8.06 g/m*3 24.5 C 16.1 km/h
189 22-07-2020 15:40:00 24.8 C 8.42 g/m*3 24.8 C 9.7 km/h
190 22-07-2020 15:45:00 25.1 C 8.57 g/m*3 25.1 C 12.9 km/h
191 22-07-2020 15:50:00 25.3 C 8.66 g/m*3 25.3 C 8.1 km/h
192 22-07-2020 15:55:00 25.4 C 8.71 g/m*3 25.4 C 11.3 km/h
193 22-07-2020 16:00:00 25.7 C 8.62 g/m*3 25.7 C 11.3 km/h
194 22-07-2020 16:05:00 25.8 C 8.67 g/m*3 25.8 C 11.3 km/h
195 22-07-2020 16:10:00 25.9 C 8.72 g/m*3 25.9 C 8.1 km/h
196 22-07-2020 16:15:00 26.1 C 8.81 g/m*3 26.1 C 12.9 km/h
197 22-07-2020 16:20:00 26.2 C 8.86 g/m*3 26.2 C 9.7 km/h
198 22-07-2020 16:25:00 26.1 C 8.81 g/m*3 26.1 C 12.9 km/h
199 22-07-2020 16:30:00 26.2 C 8.62 g/m*3 26.2 C 12.9 km/h
200 22-07-2020 16:35:00 26.1 C 8.57 g/m*3 26.1 C 11.3 km/h
Sensor: Nr:Datum:Temp:Abs-Feuchte:Windchill:Wind:
Aussen-T/F 201 22-07-2020 16:40:00 26.2 C 8.86 g/m*3 26.2 C 9.7 km/h
202 22-07-2020 16:45:00 26.1 C 8.81 g/m*3 26.1 C 16.1 km/h
203 22-07-2020 16:50:00 25.9 C 8.72 g/m*3 25.9 C 14.5 km/h
204 22-07-2020 16:55:00 25.6 C 8.57 g/m*3 25.6 C 14.5 km/h
205 22-07-2020 17:00:00 25.3 C 8.43 g/m*3 25.3 C 14.5 km/h
206 22-07-2020 17:05:00 25.3 C 8.9 g/m*3 25.3 C 12.9 km/h
207 22-07-2020 17:10:00 25.4 C 8.24 g/m*3 25.4 C 14.5 km/h
208 22-07-2020 17:15:00 25.4 C 8.48 g/m*3 25.4 C 9.7 km/h
209 22-07-2020 17:20:00 25.4 C 8.24 g/m*3 25.4 C 12.9 km/h
210 22-07-2020 17:25:00 25.6 C 8.81 g/m*3 25.6 C 16.1 km/h
211 22-07-2020 17:30:00 25.8 C 8.67 g/m*3 25.8 C 11.3 km/h
212 22-07-2020 17:35:00 25.8 C 8.19 g/m*3 25.8 C 12.9 km/h
213 22-07-2020 17:40:00 25.7 C 8.86 g/m*3 25.7 C 11.3 km/h
214 22-07-2020 17:45:00 25.8 C 8.67 g/m*3 25.8 C 14.5 km/h
215 22-07-2020 17:50:00 26.1 C 8.81 g/m*3 26.1 C 11.3 km/h
216 22-07-2020 17:55:00 26.4 C 8.71 g/m*3 26.4 C 11.3 km/h
217 22-07-2020 18:00:00 26.3 C 8.66 g/m*3 26.3 C 9.7 km/h
218 22-07-2020 18:05:00 26.1 C 8.81 g/m*3 26.1 C 11.3 km/h
219 22-07-2020 18:10:00 25.8 C 8.67 g/m*3 25.8 C 11.3 km/h
220 22-07-2020 18:15:00 25.7 C 8.62 g/m*3 25.7 C 19.3 km/h
221 22-07-2020 18:20:00 25.3 C 8.66 g/m*3 25.3 C 19.3 km/h
222 22-07-2020 18:25:00 25.1 C 8.57 g/m*3 25.1 C 12.9 km/h
223 22-07-2020 18:30:00 24.7 C 8.6 g/m*3 24.7 C 9.7 km/h
224 22-07-2020 18:35:00 24.3 C 8.63 g/m*3 24.3 C 11.3 km/h
225 22-07-2020 18:40:00 23.9 C 8.44 g/m*3 23.9 C 11.3 km/h
Sensor: Nr:Datum:Temp:Abs-Feuchte:Windchill:Wind:
Aussen-T/F 226 22-07-2020 18:45:00 23.6 C 8.72 g/m*3 23.6 C 12.9 km/h
227 22-07-2020 18:50:00 23.6 C 8.93 g/m*3 23.6 C 11.3 km/h
228 22-07-2020 18:55:00 23.6 C 8.93 g/m*3 23.6 C 8.1 km/h
229 22-07-2020 19:00:00 24 C 8.92 g/m*3 24 C 12.9 km/h
230 22-07-2020 19:05:00 24.3 C 9.07 g/m*3 24.3 C 9.7 km/h
231 22-07-2020 19:10:00 24.4 C 8.9 g/m*3 24.4 C 16.1 km/h
232 22-07-2020 19:15:00 24.2 C 8.8 g/m*3 24.2 C 12.9 km/h
233 22-07-2020 19:20:00 23.8 C 9.03 g/m*3 23.8 C 14.5 km/h
234 22-07-2020 19:25:00 23.8 C 9.03 g/m*3 23.8 C 11.3 km/h
235 22-07-2020 19:30:00 23.8 C 8.82 g/m*3 23.8 C 11.3 km/h
236 22-07-2020 19:35:00 23.8 C 8.82 g/m*3 23.8 C 11.3 km/h
237 22-07-2020 19:40:00 23.6 C 8.93 g/m*3 23.6 C 11.3 km/h
238 22-07-2020 19:45:00 23.5 C 8.88 g/m*3 23.5 C 9.7 km/h
239 22-07-2020 19:50:00 23.4 C 8.83 g/m*3 23.4 C 8.1 km/h
240 22-07-2020 19:55:00 23.3 C 8.99 g/m*3 23.3 C 11.3 km/h
241 22-07-2020 20:00:00 23.2 C 8.94 g/m*3 23.2 C 9.7 km/h
242 22-07-2020 20:05:00 23.1 C 8.89 g/m*3 23.1 C 14.5 km/h
243 22-07-2020 20:10:00 23 C 9.04 g/m*3 23 C 12.9 km/h
244 22-07-2020 20:15:00 22.9 C 8.99 g/m*3 22.9 C 11.3 km/h
245 22-07-2020 20:20:00 22.9 C 8.99 g/m*3 22.9 C 12.9 km/h
246 22-07-2020 20:25:00 22.8 C 8.94 g/m*3 22.8 C 12.9 km/h
247 22-07-2020 20:30:00 22.7 C 9.09 g/m*3 22.7 C 9.7 km/h
248 22-07-2020 20:35:00 22.5 C 8.99 g/m*3 22.5 C 9.7 km/h
249 22-07-2020 20:40:00 22.4 C 8.94 g/m*3 22.4 C 8.1 km/h
250 22-07-2020 20:45:00 22.2 C 8.83 g/m*3 22.2 C 9.7 km/h
Sensor: Nr:Datum:Temp:Abs-Feuchte:Windchill:Wind:
Aussen-T/F 251 22-07-2020 20:50:00 22.1 C 8.98 g/m*3 22.1 C 4.8 km/h
252 22-07-2020 20:55:00 21.9 C 8.88 g/m*3 21.9 C 4.8 km/h
253 22-07-2020 21:00:00 21.7 C 8.97 g/m*3 21.7 C 6.4 km/h
254 22-07-2020 21:05:00 21.6 C 8.91 g/m*3 21.6 C 4.8 km/h
255 22-07-2020 21:10:00 21.4 C 8.81 g/m*3 21.4 C 3.2 km/h
256 22-07-2020 21:15:00 21.2 C 8.71 g/m*3 21.2 C 8.1 km/h
257 22-07-2020 21:20:00 21.1 C 9.21 g/m*3 21.1 C 3.2 km/h
258 22-07-2020 21:25:00 20.8 C 8.87 g/m*3 20.8 C 8.1 km/h
259 22-07-2020 21:30:00 20.6 C 9.13 g/m*3 20.6 C 1.6 km/h
260 22-07-2020 21:35:00 20.4 C 9.02 g/m*3 20.4 C 1.6 km/h
261 22-07-2020 21:40:00 20.1 C 9.39 g/m*3 20.1 C 0 km/h
262 22-07-2020 21:45:00 19.7 C 9.17 g/m*3 19.7 C 3.2 km/h
263 22-07-2020 21:50:00 19.3 C 9.29 g/m*3 19.3 C 1.6 km/h
264 22-07-2020 21:55:00 18.9 C 9.07 g/m*3 18.9 C 1.6 km/h
265 22-07-2020 22:00:00 18.6 C 8.91 g/m*3 18.6 C 3.2 km/h
266 22-07-2020 22:05:00 18.3 C 8.91 g/m*3 18.3 C 1.6 km/h
267 22-07-2020 22:10:00 18.2 C 9.01 g/m*3 18.2 C 6.4 km/h
268 22-07-2020 22:15:00 18 C 9.06 g/m*3 18 C 4.8 km/h
269 22-07-2020 22:20:00 17.8 C 8.95 g/m*3 17.8 C 4.8 km/h
270 22-07-2020 22:25:00 17.7 C 9.05 g/m*3 17.7 C 4.8 km/h
271 22-07-2020 22:30:00 17.5 C 9.09 g/m*3 17.5 C 4.8 km/h
272 22-07-2020 22:35:00 17.3 C 8.99 g/m*3 17.3 C 4.8 km/h
273 22-07-2020 22:40:00 17.2 C 8.93 g/m*3 17.2 C 3.2 km/h
274 22-07-2020 22:45:00 17.1 C 9.03 g/m*3 17.1 C 3.2 km/h
275 22-07-2020 22:50:00 17.1 C 9.03 g/m*3 17.1 C 4.8 km/h
Sensor: Nr:Datum:Temp:Abs-Feuchte:Windchill:Wind:
Aussen-T/F 276 22-07-2020 22:55:00 16.9 C 9.06 g/m*3 16.9 C 3.2 km/h
277 22-07-2020 23:00:00 16.8 C 9.01 g/m*3 16.8 C 4.8 km/h
278 22-07-2020 23:05:00 16.7 C 8.95 g/m*3 16.7 C 0 km/h
279 22-07-2020 23:10:00 16.6 C 8.9 g/m*3 16.6 C 0 km/h
280 22-07-2020 23:15:00 16.5 C 8.99 g/m*3 16.5 C 3.2 km/h
281 22-07-2020 23:20:00 16.4 C 8.93 g/m*3 16.4 C 3.2 km/h
282 22-07-2020 23:25:00 16.3 C 9.02 g/m*3 16.3 C 4.8 km/h
283 22-07-2020 23:30:00 16.2 C 8.96 g/m*3 16.2 C 1.6 km/h
284 22-07-2020 23:35:00 16.2 C 8.83 g/m*3 16.2 C 3.2 km/h
285 22-07-2020 23:40:00 16.1 C 9.05 g/m*3 16.1 C 3.2 km/h
286 22-07-2020 23:45:00 16.1 C 8.77 g/m*3 16.1 C 4.8 km/h
287 22-07-2020 23:50:00 16.1 C 8.91 g/m*3 16.1 C 3.2 km/h
288 22-07-2020 23:55:00 16 C 8.86 g/m*3 16 C 1.6 km/h
289 23-07-2020 00:00:00 15.9 C 8.94 g/m*3 15.9 C 0 km/h
290 23-07-2020 00:05:00 15.7 C 8.96 g/m*3 15.7 C 3.2 km/h
291 23-07-2020 00:10:00 15.6 C 8.91 g/m*3 15.6 C 1.6 km/h
292 23-07-2020 00:15:00 15.4 C 8.93 g/m*3 15.4 C 3.2 km/h
293 23-07-2020 00:20:00 15.3 C 8.88 g/m*3 15.3 C 1.6 km/h
294 23-07-2020 00:25:00 15.3 C 9.01 g/m*3 15.3 C 1.6 km/h
295 23-07-2020 00:30:00 15.2 C 8.96 g/m*3 15.2 C 1.6 km/h
296 23-07-2020 00:35:00 15.1 C 8.9 g/m*3 15.1 C 3.2 km/h
297 23-07-2020 00:40:00 15.1 C 9.03 g/m*3 15.1 C 0 km/h
298 23-07-2020 00:45:00 15.1 C 9.03 g/m*3 15.1 C 1.6 km/h
299 23-07-2020 00:50:00 15.1 C 9.16 g/m*3 15.1 C 4.8 km/h
300 23-07-2020 00:55:00 15.1 C 9.16 g/m*3 15.1 C 1.6 km/h
Sensor: Nr:Datum:Temp:Abs-Feuchte:Windchill:Wind:
Aussen-T/F 301 23-07-2020 01:00:00 15.1 C 9.16 g/m*3 15.1 C 0 km/h
302 23-07-2020 01:05:00 15.1 C 9.16 g/m*3 15.1 C 0 km/h
303 23-07-2020 01:10:00 15.1 C 9.16 g/m*3 15.1 C 0 km/h
304 23-07-2020 01:15:00 15 C 9.1 g/m*3 15 C 1.6 km/h
305 23-07-2020 01:20:00 14.9 C 9.05 g/m*3 14.9 C 0 km/h
306 23-07-2020 01:25:00 14.9 C 9.05 g/m*3 14.9 C 0 km/h
307 23-07-2020 01:30:00 14.8 C 8.99 g/m*3 14.8 C 4.8 km/h
308 23-07-2020 01:35:00 14.7 C 8.94 g/m*3 14.7 C 6.4 km/h
309 23-07-2020 01:40:00 14.6 C 9.01 g/m*3 14.6 C 6.4 km/h
310 23-07-2020 01:45:00 14.5 C 8.95 g/m*3 14.5 C 4.8 km/h
311 23-07-2020 01:50:00 14.4 C 9.02 g/m*3 14.4 C 3.2 km/h
312 23-07-2020 01:55:00 14.3 C 8.97 g/m*3 14.3 C 4.8 km/h
313 23-07-2020 02:00:00 14.2 C 9.04 g/m*3 14.2 C 4.8 km/h
314 23-07-2020 02:05:00 14.1 C 8.98 g/m*3 14.1 C 4.8 km/h
315 23-07-2020 02:10:00 13.9 C 8.87 g/m*3 13.9 C 4.8 km/h
316 23-07-2020 02:15:00 13.8 C 8.94 g/m*3 13.8 C 0 km/h
317 23-07-2020 02:20:00 13.8 C 8.94 g/m*3 13.8 C 0 km/h
318 23-07-2020 02:25:00 13.7 C 8.88 g/m*3 13.7 C 0 km/h
319 23-07-2020 02:30:00 13.7 C 9 g/m*3 13.7 C 0 km/h
320 23-07-2020 02:35:00 13.7 C 9 g/m*3 13.7 C 0 km/h
321 23-07-2020 02:40:00 13.6 C 8.94 g/m*3 13.6 C 0 km/h
322 23-07-2020 02:45:00 13.6 C 8.94 g/m*3 13.6 C 0 km/h
323 23-07-2020 02:50:00 13.7 C 9 g/m*3 13.7 C 0 km/h
324 23-07-2020 02:55:00 13.7 C 9 g/m*3 13.7 C 0 km/h
325 23-07-2020 03:00:00 13.7 C 9 g/m*3 13.7 C 0 km/h
Sensor: Nr:Datum:Temp:Abs-Feuchte:Windchill:Wind:
Aussen-T/F 326 23-07-2020 03:05:00 13.7 C 9 g/m*3 13.7 C 0 km/h
327 23-07-2020 03:10:00 13.7 C 9 g/m*3 13.7 C 0 km/h
328 23-07-2020 03:15:00 13.6 C 8.94 g/m*3 13.6 C 0 km/h
329 23-07-2020 03:20:00 13.5 C 9.01 g/m*3 13.5 C 0 km/h
330 23-07-2020 03:25:00 13.4 C 8.95 g/m*3 13.4 C 0 km/h
331 23-07-2020 03:30:00 13.3 C 8.9 g/m*3 13.3 C 0 km/h
332 23-07-2020 03:35:00 13.2 C 8.84 g/m*3 13.2 C 0 km/h
333 23-07-2020 03:40:00 13.1 C 8.79 g/m*3 13.1 C 0 km/h
334 23-07-2020 03:45:00 13 C 8.85 g/m*3 13 C 0 km/h
335 23-07-2020 03:50:00 12.9 C 8.79 g/m*3 12.9 C 4.8 km/h
336 23-07-2020 03:55:00 12.9 C 8.79 g/m*3 12.9 C 1.6 km/h
337 23-07-2020 04:00:00 12.9 C 8.79 g/m*3 12.9 C 0 km/h
338 23-07-2020 04:05:00 12.8 C 8.85 g/m*3 12.8 C 0 km/h
339 23-07-2020 04:10:00 12.7 C 8.79 g/m*3 12.7 C 0 km/h
340 23-07-2020 04:15:00 12.6 C 8.74 g/m*3 12.6 C 0 km/h
341 23-07-2020 04:20:00 12.5 C 8.69 g/m*3 12.5 C 0 km/h
342 23-07-2020 04:25:00 12.4 C 8.74 g/m*3 12.4 C 0 km/h
343 23-07-2020 04:30:00 12.3 C 8.69 g/m*3 12.3 C 0 km/h
344 23-07-2020 04:35:00 12.1 C 8.69 g/m*3 12.1 C 0 km/h
345 23-07-2020 04:40:00 12 C 8.63 g/m*3 12 C 0 km/h
346 23-07-2020 04:45:00 11.9 C 8.58 g/m*3 11.9 C 0 km/h
347 23-07-2020 04:50:00 11.8 C 8.63 g/m*3 11.8 C 0 km/h
348 23-07-2020 04:55:00 11.7 C 8.58 g/m*3 11.7 C 0 km/h
349 23-07-2020 05:00:00 11.6 C 8.52 g/m*3 11.6 C 0 km/h
350 23-07-2020 05:05:00 11.4 C 8.52 g/m*3 11.4 C 0 km/h
Sensor: Nr:Datum:Temp:Abs-Feuchte:Windchill:Wind:
Aussen-T/F 351 23-07-2020 05:10:00 11.3 C 8.47 g/m*3 11.3 C 0 km/h
352 23-07-2020 05:15:00 11.3 C 8.57 g/m*3 11.3 C 0 km/h
353 23-07-2020 05:20:00 11.2 C 8.51 g/m*3 11.2 C 0 km/h
354 23-07-2020 05:25:00 11.1 C 8.46 g/m*3 11.1 C 0 km/h
355 23-07-2020 05:30:00 11.1 C 8.46 g/m*3 11.1 C 0 km/h
356 23-07-2020 05:35:00 11 C 8.51 g/m*3 11 C 0 km/h
357 23-07-2020 05:40:00 10.9 C 8.45 g/m*3 10.9 C 0 km/h
358 23-07-2020 05:45:00 10.8 C 8.4 g/m*3 10.8 C 0 km/h
359 23-07-2020 05:50:00 10.8 C 8.4 g/m*3 10.8 C 0 km/h
360 23-07-2020 05:55:00 10.7 C 8.45 g/m*3 10.7 C 0 km/h
361 23-07-2020 06:00:00 10.7 C 8.45 g/m*3 10.7 C 1.6 km/h
362 23-07-2020 06:05:00 10.7 C 8.55 g/m*3 10.7 C 0 km/h
363 23-07-2020 06:10:00 10.7 C 8.55 g/m*3 10.7 C 0 km/h
364 23-07-2020 06:15:00 10.6 C 8.49 g/m*3 10.6 C 0 km/h
365 23-07-2020 06:20:00 10.6 C 8.49 g/m*3 10.6 C 0 km/h
366 23-07-2020 06:25:00 10.6 C 8.49 g/m*3 10.6 C 0 km/h
367 23-07-2020 06:30:00 10.6 C 8.49 g/m*3 10.6 C 0 km/h
368 23-07-2020 06:35:00 10.6 C 8.49 g/m*3 10.6 C 0 km/h
369 23-07-2020 06:40:00 10.6 C 8.59 g/m*3 10.6 C 0 km/h
370 23-07-2020 06:45:00 10.6 C 8.59 g/m*3 10.6 C 0 km/h
371 23-07-2020 06:50:00 10.6 C 8.59 g/m*3 10.6 C 0 km/h
372 23-07-2020 06:55:00 10.6 C 8.59 g/m*3 10.6 C 0 km/h
373 23-07-2020 07:00:00 10.6 C 8.59 g/m*3 10.6 C 0 km/h
374 23-07-2020 07:05:00 10.6 C 8.69 g/m*3 10.6 C 0 km/h
375 23-07-2020 07:10:00 10.6 C 8.69 g/m*3 10.6 C 0 km/h
Sensor: Nr:Datum:Temp:Abs-Feuchte:Windchill:Wind:
Aussen-T/F 376 23-07-2020 07:15:00 10.6 C 8.69 g/m*3 10.6 C 0 km/h
377 23-07-2020 07:20:00 10.6 C 8.69 g/m*3 10.6 C 0 km/h
378 23-07-2020 07:25:00 10.7 C 8.74 g/m*3 10.7 C 0 km/h
379 23-07-2020 07:30:00 10.7 C 8.74 g/m*3 10.7 C 0 km/h
380 23-07-2020 07:35:00 10.8 C 8.8 g/m*3 10.8 C 0 km/h
381 23-07-2020 07:40:00 10.8 C 8.8 g/m*3 10.8 C 0 km/h
382 23-07-2020 07:45:00 10.8 C 8.8 g/m*3 10.8 C 0 km/h
383 23-07-2020 07:50:00 10.9 C 8.85 g/m*3 10.9 C 0 km/h
384 23-07-2020 07:55:00 11 C 8.91 g/m*3 11 C 0 km/h
385 23-07-2020 08:00:00 11.1 C 8.96 g/m*3 11.1 C 0 km/h
386 23-07-2020 08:05:00 11.2 C 9.12 g/m*3 11.2 C 0 km/h
387 23-07-2020 08:10:00 11.2 C 9.02 g/m*3 11.2 C 0 km/h
388 23-07-2020 08:15:00 11.3 C 9.08 g/m*3 11.3 C 0 km/h
389 23-07-2020 08:20:00 11.4 C 9.14 g/m*3 11.4 C 0 km/h
390 23-07-2020 08:25:00 11.6 C 9.25 g/m*3 11.6 C 0 km/h
391 23-07-2020 08:30:00 11.7 C 9.31 g/m*3 11.7 C 0 km/h
392 23-07-2020 08:35:00 11.8 C 9.37 g/m*3 11.8 C 0 km/h
393 23-07-2020 08:40:00 11.9 C 9.43 g/m*3 11.9 C 0 km/h
394 23-07-2020 08:45:00 12.1 C 9.54 g/m*3 12.1 C 0 km/h
395 23-07-2020 08:50:00 12.3 C 9.66 g/m*3 12.3 C 0 km/h
396 23-07-2020 08:55:00 12.4 C 9.62 g/m*3 12.4 C 0 km/h
397 23-07-2020 09:00:00 12.5 C 9.57 g/m*3 12.5 C 0 km/h
398 23-07-2020 09:05:00 12.7 C 9.68 g/m*3 12.7 C 0 km/h
399 23-07-2020 09:10:00 12.8 C 9.63 g/m*3 12.8 C 0 km/h
400 23-07-2020 09:15:00 13.1 C 9.7 g/m*3 13.1 C 0 km/h
Sensor: Nr:Datum:Temp:Abs-Feuchte:Windchill:Wind:
Aussen-T/F 401 23-07-2020 09:20:00 13.4 C 9.76 g/m*3 13.4 C 0 km/h
402 23-07-2020 09:25:00 13.7 C 9.83 g/m*3 13.7 C 0 km/h
403 23-07-2020 09:30:00 13.8 C 9.89 g/m*3 13.8 C 0 km/h
404 23-07-2020 09:35:00 14.1 C 9.83 g/m*3 14.1 C 3.2 km/h
405 23-07-2020 09:40:00 14.4 C 9.89 g/m*3 14.4 C 3.2 km/h
406 23-07-2020 09:45:00 14.7 C 9.82 g/m*3 14.7 C 0 km/h
407 23-07-2020 09:50:00 15 C 10 g/m*3 15 C 1.6 km/h
408 23-07-2020 09:55:00 15.3 C 10.06 g/m*3 15.3 C 0 km/h
409 23-07-2020 10:00:00 15.4 C 9.99 g/m*3 15.4 C 0 km/h
410 23-07-2020 10:05:00 15.6 C 9.97 g/m*3 15.6 C 0 km/h
411 23-07-2020 10:10:00 15.8 C 9.83 g/m*3 15.8 C 1.6 km/h
412 23-07-2020 10:15:00 16.1 C 9.73 g/m*3 16.1 C 3.2 km/h
413 23-07-2020 10:20:00 16.5 C 9.97 g/m*3 16.5 C 4.8 km/h
414 23-07-2020 10:25:00 16.9 C 9.64 g/m*3 16.9 C 1.6 km/h
415 23-07-2020 10:30:00 17.3 C 9.28 g/m*3 17.3 C 3.2 km/h
416 23-07-2020 10:35:00 17.7 C 9.51 g/m*3 17.7 C 4.8 km/h
417 23-07-2020 10:40:00 18.2 C 9.64 g/m*3 18.2 C 4.8 km/h
418 23-07-2020 10:45:00 18.5 C 9.02 g/m*3 18.5 C 4.8 km/h
419 23-07-2020 10:50:00 18.8 C 9.18 g/m*3 18.8 C 6.4 km/h
420 23-07-2020 10:55:00 19.1 C 9.18 g/m*3 19.1 C 3.2 km/h
421 23-07-2020 11:00:00 19.3 C 9.12 g/m*3 19.3 C 4.8 km/h
422 23-07-2020 11:05:00 19.4 C 9.18 g/m*3 19.4 C 8.1 km/h
423 23-07-2020 11:10:00 19.6 C 9.28 g/m*3 19.6 C 6.4 km/h
424 23-07-2020 11:15:00 19.7 C 9.34 g/m*3 19.7 C 6.4 km/h
425 23-07-2020 11:20:00 19.9 C 9.45 g/m*3 19.9 C 8.1 km/h
Sensor: Nr:Datum:Temp:Abs-Feuchte:Windchill:Wind:
Aussen-T/F 426 23-07-2020 11:25:00 20.2 C 9.09 g/m*3 20.2 C 8.1 km/h
427 23-07-2020 11:30:00 20.2 C 9.09 g/m*3 20.2 C 3.2 km/h
428 23-07-2020 11:35:00 20.2 C 8.92 g/m*3 20.2 C 6.4 km/h
429 23-07-2020 11:40:00 20.3 C 8.79 g/m*3 20.3 C 9.7 km/h
430 23-07-2020 11:45:00 20.4 C 8.67 g/m*3 20.4 C 12.9 km/h
431 23-07-2020 11:50:00 20.4 C 8.85 g/m*3 20.4 C 6.4 km/h
432 23-07-2020 11:55:00 20.6 C 9.13 g/m*3 20.6 C 6.4 km/h
433 23-07-2020 12:00:00 20.7 C 8.64 g/m*3 20.7 C 6.4 km/h
434 23-07-2020 12:05:00 20.8 C 8.51 g/m*3 20.8 C 8.1 km/h
435 23-07-2020 12:10:00 20.9 C 8.56 g/m*3 20.9 C 8.1 km/h
436 23-07-2020 12:15:00 21.1 C 8.84 g/m*3 21.1 C 4.8 km/h
437 23-07-2020 12:20:00 21.2 C 8.71 g/m*3 21.2 C 11.3 km/h
438 23-07-2020 12:25:00 21.3 C 8.76 g/m*3 21.3 C 6.4 km/h
439 23-07-2020 12:30:00 21.3 C 8.57 g/m*3 21.3 C 9.7 km/h
440 23-07-2020 12:35:00 21.4 C 9 g/m*3 21.4 C 4.8 km/h
441 23-07-2020 12:40:00 21.4 C 8.44 g/m*3 21.4 C 6.4 km/h
442 23-07-2020 12:45:00 21.5 C 8.3 g/m*3 21.5 C 19.3 km/h
443 23-07-2020 12:50:00 21.6 C 8.53 g/m*3 21.6 C 16.1 km/h
444 23-07-2020 12:55:00 21.7 C 8.39 g/m*3 21.7 C 12.9 km/h
445 23-07-2020 13:00:00 21.8 C 8.25 g/m*3 21.8 C 11.3 km/h
446 23-07-2020 13:05:00 21.8 C 8.06 g/m*3 21.8 C 14.5 km/h
447 23-07-2020 13:10:00 21.9 C 8.1 g/m*3 21.9 C 9.7 km/h
448 23-07-2020 13:15:00 22.2 C 8.05 g/m*3 22.2 C 12.9 km/h
449 23-07-2020 13:20:00 22.2 C 8.25 g/m*3 22.2 C 6.4 km/h
450 23-07-2020 13:25:00 22.3 C 8.29 g/m*3 22.3 C 9.7 km/h
Sensor: Nr:Datum:Temp:Abs-Feuchte:Windchill:Wind:
Aussen-T/F 451 23-07-2020 13:30:00 22.4 C 8.54 g/m*3 22.4 C 8.1 km/h
452 23-07-2020 13:35:00 22.4 C 8.54 g/m*3 22.4 C 6.4 km/h
453 23-07-2020 13:40:00 22.5 C 8.39 g/m*3 22.5 C 8.1 km/h
454 23-07-2020 13:45:00 22.7 C 8.28 g/m*3 22.7 C 6.4 km/h
455 23-07-2020 13:50:00 22.8 C 8.33 g/m*3 22.8 C 6.4 km/h
456 23-07-2020 13:55:00 23 C 8.22 g/m*3 23 C 11.3 km/h
457 23-07-2020 14:00:00 23.1 C 8.27 g/m*3 23.1 C 9.7 km/h
458 23-07-2020 14:05:00 23.1 C 8.48 g/m*3 23.1 C 6.4 km/h
459 23-07-2020 14:10:00 23.2 C 8.32 g/m*3 23.2 C 4.8 km/h
460 23-07-2020 14:15:00 23.3 C 8.36 g/m*3 23.3 C 4.8 km/h
461 23-07-2020 14:20:00 23.3 C 8.15 g/m*3 23.3 C 8.1 km/h
462 23-07-2020 14:25:00 23.3 C 8.15 g/m*3 23.3 C 9.7 km/h
463 23-07-2020 14:30:00 23.6 C 8.29 g/m*3 23.6 C 6.4 km/h
464 23-07-2020 14:35:00 23.8 C 8.39 g/m*3 23.8 C 14.5 km/h
465 23-07-2020 14:40:00 23.9 C 8.22 g/m*3 23.9 C 11.3 km/h
466 23-07-2020 14:45:00 24.1 C 8.31 g/m*3 24.1 C 11.3 km/h
467 23-07-2020 14:50:00 24.2 C 8.14 g/m*3 24.2 C 12.9 km/h
468 23-07-2020 14:55:00 24.3 C 8.41 g/m*3 24.3 C 11.3 km/h
469 23-07-2020 15:00:00 24.4 C 8.46 g/m*3 24.4 C 4.8 km/h
470 23-07-2020 15:05:00 24.3 C 8.41 g/m*3 24.3 C 4.8 km/h
471 23-07-2020 15:10:00 24.6 C 8.78 g/m*3 24.6 C 8.1 km/h
472 23-07-2020 15:15:00 24.8 C 8.65 g/m*3 24.8 C 9.7 km/h
473 23-07-2020 15:20:00 24.9 C 8.47 g/m*3 24.9 C 12.9 km/h
474 23-07-2020 15:25:00 24.9 C 8.24 g/m*3 24.9 C 9.7 km/h
475 23-07-2020 15:30:00 25 C 8.52 g/m*3 25 C 12.9 km/h
Sensor: Nr:Datum:Temp:Abs-Feuchte:Windchill:Wind:
Aussen-T/F 476 23-07-2020 15:35:00 25.2 C 8.15 g/m*3 25.2 C 11.3 km/h
477 23-07-2020 15:40:00 25.6 C 8.33 g/m*3 25.6 C 9.7 km/h
478 23-07-2020 15:45:00 25.7 C 8.62 g/m*3 25.7 C 4.8 km/h
479 23-07-2020 15:50:00 26.1 C 8.57 g/m*3 26.1 C 11.3 km/h
480 23-07-2020 15:55:00 26.4 C 8.46 g/m*3 26.4 C 11.3 km/h
481 23-07-2020 16:00:00 26.7 C 8.61 g/m*3 26.7 C 9.7 km/h
482 23-07-2020 16:05:00 26.6 C 8.56 g/m*3 26.6 C 9.7 km/h
483 23-07-2020 16:10:00 26.8 C 8.65 g/m*3 26.8 C 6.4 km/h
484 23-07-2020 16:15:00 26.9 C 8.7 g/m*3 26.9 C 6.4 km/h
485 23-07-2020 16:20:00 27.1 C 8.8 g/m*3 27.1 C 9.7 km/h
486 23-07-2020 16:25:00 27.1 C 8.8 g/m*3 27.1 C 8.1 km/h
487 23-07-2020 16:30:00 27.2 C 8.59 g/m*3 27.2 C 8.1 km/h
488 23-07-2020 16:35:00 27.4 C 8.68 g/m*3 27.4 C 8.1 km/h
489 23-07-2020 16:40:00 27.1 C 8.54 g/m*3 27.1 C 11.3 km/h
490 23-07-2020 16:45:00 26.9 C 8.7 g/m*3 26.9 C 8.1 km/h
491 23-07-2020 16:50:00 27 C 8.75 g/m*3 27 C 3.2 km/h
492 23-07-2020 16:55:00 27.1 C 8.8 g/m*3 27.1 C 6.4 km/h
493 23-07-2020 17:00:00 27.3 C 9.16 g/m*3 27.3 C 6.4 km/h
494 23-07-2020 17:05:00 27.7 C 9.09 g/m*3 27.7 C 6.4 km/h
495 23-07-2020 17:10:00 27.6 C 8.51 g/m*3 27.6 C 9.7 km/h
496 23-07-2020 17:15:00 27.4 C 8.68 g/m*3 27.4 C 6.4 km/h
497 23-07-2020 17:20:00 27.9 C 8.92 g/m*3 27.9 C 4.8 km/h
498 23-07-2020 17:25:00 28.2 C 8.8 g/m*3 28.2 C 11.3 km/h
499 23-07-2020 17:30:00 28.3 C 8.85 g/m*3 28.3 C 9.7 km/h
500 23-07-2020 17:35:00 28.2 C 8.52 g/m*3 28.2 C 11.3 km/h
Sensor: Nr:Datum:Temp:Abs-Feuchte:Windchill:Wind:
Aussen-T/F 501 23-07-2020 17:40:00 28 C 8.7 g/m*3 28 C 4.8 km/h
502 23-07-2020 17:45:00 28.1 C 9.02 g/m*3 28.1 C 4.8 km/h
503 23-07-2020 17:50:00 28.3 C 8.57 g/m*3 28.3 C 4.8 km/h
504 23-07-2020 17:55:00 28.4 C 8.9 g/m*3 28.4 C 6.4 km/h
505 23-07-2020 18:00:00 28.5 C 8.66 g/m*3 28.5 C 3.2 km/h
506 23-07-2020 18:05:00 28.2 C 8.8 g/m*3 28.2 C 8.1 km/h
507 23-07-2020 18:10:00 27.8 C 8.88 g/m*3 27.8 C 11.3 km/h
508 23-07-2020 18:15:00 27.7 C 8.56 g/m*3 27.7 C 6.4 km/h
509 23-07-2020 18:20:00 27.8 C 8.88 g/m*3 27.8 C 1.6 km/h
510 23-07-2020 18:25:00 28 C 8.97 g/m*3 28 C 3.2 km/h
511 23-07-2020 18:30:00 27.9 C 8.65 g/m*3 27.9 C 3.2 km/h
512 23-07-2020 18:35:00 27.8 C 8.61 g/m*3 27.8 C 9.7 km/h
513 23-07-2020 18:40:00 27.9 C 8.92 g/m*3 27.9 C 8.1 km/h
514 23-07-2020 18:45:00 28 C 8.97 g/m*3 28 C 4.8 km/h
515 23-07-2020 18:50:00 28.1 C 8.75 g/m*3 28.1 C 6.4 km/h
516 23-07-2020 18:55:00 28 C 8.97 g/m*3 28 C 11.3 km/h
517 23-07-2020 19:00:00 28 C 8.7 g/m*3 28 C 4.8 km/h
518 23-07-2020 19:05:00 28 C 8.7 g/m*3 28 C 4.8 km/h
519 23-07-2020 19:10:00 27.9 C 8.92 g/m*3 27.9 C 3.2 km/h
520 23-07-2020 19:15:00 27.7 C 8.83 g/m*3 27.7 C 3.2 km/h
521 23-07-2020 19:20:00 27.5 C 8.47 g/m*3 27.5 C 6.4 km/h
522 23-07-2020 19:25:00 27.2 C 8.85 g/m*3 27.2 C 1.6 km/h
523 23-07-2020 19:30:00 26.9 C 8.7 g/m*3 26.9 C 1.6 km/h
524 23-07-2020 19:35:00 26.6 C 8.81 g/m*3 26.6 C 3.2 km/h
525 23-07-2020 19:40:00 26.4 C 8.71 g/m*3 26.4 C 3.2 km/h
Sensor: Nr:Datum:Temp:Abs-Feuchte:Windchill:Wind:
Aussen-T/F 526 23-07-2020 19:45:00 26.2 C 8.86 g/m*3 26.2 C 3.2 km/h
527 23-07-2020 19:50:00 26.1 C 10.04 g/m*3 26.1 C 3.2 km/h
528 23-07-2020 19:55:00 25.8 C 10.35 g/m*3 25.8 C 0 km/h
529 23-07-2020 20:00:00 25.5 C 10.65 g/m*3 25.5 C 1.6 km/h
530 23-07-2020 20:05:00 25 C 10.13 g/m*3 25 C 3.2 km/h
531 23-07-2020 20:10:00 24.6 C 10.13 g/m*3 24.6 C 0 km/h
532 23-07-2020 20:15:00 24.3 C 10.18 g/m*3 24.3 C 4.8 km/h
533 23-07-2020 20:20:00 24 C 10.23 g/m*3 24 C 3.2 km/h
534 23-07-2020 20:25:00 23.7 C 10.27 g/m*3 23.7 C 4.8 km/h
535 23-07-2020 20:30:00 23.5 C 10.15 g/m*3 23.5 C 3.2 km/h
536 23-07-2020 20:35:00 23.3 C 10.25 g/m*3 23.3 C 3.2 km/h
537 23-07-2020 20:40:00 23.1 C 10.13 g/m*3 23.1 C 3.2 km/h
538 23-07-2020 20:45:00 22.8 C 9.96 g/m*3 22.8 C 3.2 km/h
539 23-07-2020 20:50:00 22.6 C 10.04 g/m*3 22.6 C 4.8 km/h
540 23-07-2020 20:55:00 22.4 C 9.93 g/m*3 22.4 C 3.2 km/h
541 23-07-2020 21:00:00 22.2 C 9.82 g/m*3 22.2 C 3.2 km/h
542 23-07-2020 21:05:00 22.1 C 9.76 g/m*3 22.1 C 4.8 km/h
543 23-07-2020 21:10:00 21.9 C 9.84 g/m*3 21.9 C 3.2 km/h
544 23-07-2020 21:15:00 21.7 C 9.73 g/m*3 21.7 C 4.8 km/h
545 23-07-2020 21:20:00 21.6 C 9.86 g/m*3 21.6 C 4.8 km/h
546 23-07-2020 21:25:00 21.5 C 9.81 g/m*3 21.5 C 4.8 km/h
547 23-07-2020 21:30:00 21.4 C 9.94 g/m*3 21.4 C 4.8 km/h
548 23-07-2020 21:35:00 21.3 C 9.88 g/m*3 21.3 C 4.8 km/h
549 23-07-2020 21:40:00 21.3 C 9.69 g/m*3 21.3 C 4.8 km/h
550 23-07-2020 21:45:00 21.3 C 9.88 g/m*3 21.3 C 6.4 km/h
Sensor: Nr:Datum:Temp:Abs-Feuchte:Windchill:Wind:
Aussen-T/F 551 23-07-2020 21:50:00 21.3 C 10.25 g/m*3 21.3 C 4.8 km/h
552 23-07-2020 21:55:00 21.2 C 10.38 g/m*3 21.2 C 3.2 km/h
553 23-07-2020 22:00:00 21.1 C 10.13 g/m*3 21.1 C 4.8 km/h
554 23-07-2020 22:05:00 21.1 C 10.13 g/m*3 21.1 C 4.8 km/h
555 23-07-2020 22:10:00 20.9 C 10.02 g/m*3 20.9 C 4.8 km/h
556 23-07-2020 22:15:00 20.8 C 9.96 g/m*3 20.8 C 4.8 km/h
557 23-07-2020 22:20:00 20.8 C 10.32 g/m*3 20.8 C 4.8 km/h
558 23-07-2020 22:25:00 20.7 C 10.26 g/m*3 20.7 C 0 km/h
559 23-07-2020 22:30:00 20.7 C 10.62 g/m*3 20.7 C 1.6 km/h
560 23-07-2020 22:35:00 20.6 C 10.56 g/m*3 20.6 C 0 km/h
561 23-07-2020 22:40:00 20.5 C 10.5 g/m*3 20.5 C 0 km/h
562 23-07-2020 22:45:00 20.3 C 10.73 g/m*3 20.3 C 0 km/h
563 23-07-2020 22:50:00 20.2 C 10.67 g/m*3 20.2 C 0 km/h
564 23-07-2020 22:55:00 20.1 C 10.78 g/m*3 20.1 C 0 km/h
565 23-07-2020 23:00:00 20 C 10.54 g/m*3 20 C 0 km/h
566 23-07-2020 23:05:00 19.8 C 10.42 g/m*3 19.8 C 0 km/h
567 23-07-2020 23:10:00 19.8 C 10.42 g/m*3 19.8 C 0 km/h
568 23-07-2020 23:15:00 19.7 C 10.53 g/m*3 19.7 C 0 km/h
569 23-07-2020 23:20:00 19.6 C 10.47 g/m*3 19.6 C 0 km/h
570 23-07-2020 23:25:00 19.4 C 10.51 g/m*3 19.4 C 0 km/h
571 23-07-2020 23:30:00 19.4 C 10.51 g/m*3 19.4 C 0 km/h
572 23-07-2020 23:35:00 19.3 C 10.45 g/m*3 19.3 C 0 km/h
573 23-07-2020 23:40:00 19.2 C 10.55 g/m*3 19.2 C 0 km/h
574 23-07-2020 23:45:00 19.2 C 10.72 g/m*3 19.2 C 0 km/h
575 23-07-2020 23:50:00 19.1 C 10.49 g/m*3 19.1 C 0 km/h
Sensor: Nr:Datum:Temp:Abs-Feuchte:Windchill:Wind:
Aussen-T/F 576 23-07-2020 23:55:00 19 C 10.43 g/m*3 19 C 0 km/h
577 24-07-2020 00:00:00 18.9 C 10.37 g/m*3 18.9 C 0 km/h
578 24-07-2020 00:05:00 18.9 C 10.53 g/m*3 18.9 C 0 km/h
579 24-07-2020 00:10:00 18.9 C 10.37 g/m*3 18.9 C 0 km/h
580 24-07-2020 00:15:00 18.8 C 10.63 g/m*3 18.8 C 0 km/h
581 24-07-2020 00:20:00 18.8 C 10.47 g/m*3 18.8 C 0 km/h
582 24-07-2020 00:25:00 18.8 C 10.47 g/m*3 18.8 C 0 km/h
583 24-07-2020 00:30:00 18.7 C 10.57 g/m*3 18.7 C 0 km/h
584 24-07-2020 00:35:00 18.7 C 10.41 g/m*3 18.7 C 0 km/h
585 24-07-2020 00:40:00 18.7 C 10.57 g/m*3 18.7 C 0 km/h
586 24-07-2020 00:45:00 18.6 C 10.66 g/m*3 18.6 C 0 km/h
587 24-07-2020 00:50:00 18.6 C 10.5 g/m*3 18.6 C 0 km/h
588 24-07-2020 00:55:00 18.6 C 10.5 g/m*3 18.6 C 0 km/h
589 24-07-2020 01:00:00 18.5 C 10.6 g/m*3 18.5 C 0 km/h
590 24-07-2020 01:05:00 18.4 C 10.38 g/m*3 18.4 C 0 km/h
591 24-07-2020 01:10:00 18.3 C 10.48 g/m*3 18.3 C 0 km/h
592 24-07-2020 01:15:00 18.3 C 10.48 g/m*3 18.3 C 0 km/h
593 24-07-2020 01:20:00 18.3 C 10.48 g/m*3 18.3 C 0 km/h
594 24-07-2020 01:25:00 18.2 C 10.41 g/m*3 18.2 C 0 km/h
595 24-07-2020 01:30:00 18.2 C 10.26 g/m*3 18.2 C 1.6 km/h
596 24-07-2020 01:35:00 18.1 C 10.2 g/m*3 18.1 C 4.8 km/h
597 24-07-2020 01:40:00 18.1 C 10.2 g/m*3 18.1 C 6.4 km/h
598 24-07-2020 01:45:00 18.1 C 10.2 g/m*3 18.1 C 6.4 km/h
599 24-07-2020 01:50:00 18.1 C 10.35 g/m*3 18.1 C 0 km/h
600 24-07-2020 01:55:00 18.1 C 10.35 g/m*3 18.1 C 0 km/h
Sensor: Nr:Datum:Temp:Abs-Feuchte:Windchill:Wind:
Aussen-T/F 601 24-07-2020 02:00:00 18.1 C 10.35 g/m*3 18.1 C 0 km/h
602 24-07-2020 02:05:00 18.1 C 10.51 g/m*3 18.1 C 0 km/h
603 24-07-2020 02:10:00 17.9 C 10.23 g/m*3 17.9 C 0 km/h
604 24-07-2020 02:15:00 17.8 C 10.32 g/m*3 17.8 C 0 km/h
605 24-07-2020 02:20:00 17.7 C 10.26 g/m*3 17.7 C 0 km/h
606 24-07-2020 02:25:00 17.6 C 10.35 g/m*3 17.6 C 0 km/h
607 24-07-2020 02:30:00 17.4 C 10.08 g/m*3 17.4 C 0 km/h
608 24-07-2020 02:35:00 17.2 C 10.1 g/m*3 17.2 C 0 km/h
609 24-07-2020 02:40:00 17.1 C 10.04 g/m*3 17.1 C 1.6 km/h
610 24-07-2020 02:45:00 17 C 9.98 g/m*3 17 C 3.2 km/h
611 24-07-2020 02:50:00 16.9 C 9.92 g/m*3 16.9 C 1.6 km/h
612 24-07-2020 02:55:00 16.8 C 9.87 g/m*3 16.8 C 1.6 km/h
613 24-07-2020 03:00:00 16.7 C 9.95 g/m*3 16.7 C 1.6 km/h
614 24-07-2020 03:05:00 16.7 C 10.09 g/m*3 16.7 C 0 km/h
615 24-07-2020 03:10:00 16.6 C 10.03 g/m*3 16.6 C 1.6 km/h
616 24-07-2020 03:15:00 16.5 C 9.97 g/m*3 16.5 C 1.6 km/h
617 24-07-2020 03:20:00 16.4 C 9.91 g/m*3 16.4 C 0 km/h
618 24-07-2020 03:25:00 16.4 C 9.91 g/m*3 16.4 C 0 km/h
619 24-07-2020 03:30:00 16.3 C 9.85 g/m*3 16.3 C 0 km/h
620 24-07-2020 03:35:00 16.3 C 9.99 g/m*3 16.3 C 0 km/h
621 24-07-2020 03:40:00 16.3 C 10.13 g/m*3 16.3 C 0 km/h
622 24-07-2020 03:45:00 16.2 C 10.07 g/m*3 16.2 C 0 km/h
623 24-07-2020 03:50:00 16.3 C 10.27 g/m*3 16.3 C 0 km/h
624 24-07-2020 03:55:00 16.3 C 10.41 g/m*3 16.3 C 0 km/h
625 24-07-2020 04:00:00 16.3 C 10.27 g/m*3 16.3 C 0 km/h
Sensor: Nr:Datum:Temp:Abs-Feuchte:Windchill:Wind:
Aussen-T/F 626 24-07-2020 04:05:00 16.2 C 10.2 g/m*3 16.2 C 0 km/h
627 24-07-2020 04:10:00 16.2 C 10.2 g/m*3 16.2 C 0 km/h
628 24-07-2020 04:15:00 16.2 C 10.2 g/m*3 16.2 C 0 km/h
629 24-07-2020 04:20:00 16.1 C 10.01 g/m*3 16.1 C 0 km/h
630 24-07-2020 04:25:00 16.2 C 10.2 g/m*3 16.2 C 1.6 km/h
631 24-07-2020 04:30:00 16.2 C 10.07 g/m*3 16.2 C 3.2 km/h
632 24-07-2020 04:35:00 16.4 C 10.19 g/m*3 16.4 C 3.2 km/h
633 24-07-2020 04:40:00 16.5 C 10.25 g/m*3 16.5 C 8.1 km/h
634 24-07-2020 04:45:00 16.6 C 10.45 g/m*3 16.6 C 3.2 km/h
635 24-07-2020 04:50:00 16.6 C 10.31 g/m*3 16.6 C 6.4 km/h
636 24-07-2020 04:55:00 16.6 C 10.31 g/m*3 16.6 C 4.8 km/h
637 24-07-2020 05:00:00 16.7 C 10.37 g/m*3 16.7 C 3.2 km/h
638 24-07-2020 05:05:00 16.6 C 10.45 g/m*3 16.6 C 3.2 km/h
639 24-07-2020 05:10:00 16.6 C 10.31 g/m*3 16.6 C 1.6 km/h
640 24-07-2020 05:15:00 16.6 C 10.45 g/m*3 16.6 C 0 km/h
641 24-07-2020 05:20:00 16.6 C 10.59 g/m*3 16.6 C 1.6 km/h
642 24-07-2020 05:25:00 16.6 C 10.59 g/m*3 16.6 C 0 km/h
643 24-07-2020 05:30:00 16.6 C 10.59 g/m*3 16.6 C 0 km/h
644 24-07-2020 05:35:00 16.4 C 10.33 g/m*3 16.4 C 1.6 km/h
645 24-07-2020 05:40:00 16.3 C 10.41 g/m*3 16.3 C 0 km/h
646 24-07-2020 05:45:00 16.2 C 10.34 g/m*3 16.2 C 0 km/h
647 24-07-2020 05:50:00 16.1 C 10.28 g/m*3 16.1 C 1.6 km/h
648 24-07-2020 05:55:00 16 C 10.35 g/m*3 16 C 0 km/h
649 24-07-2020 06:00:00 15.9 C 10.29 g/m*3 15.9 C 0 km/h
650 24-07-2020 06:05:00 15.8 C 10.23 g/m*3 15.8 C 0 km/h
Sensor: Nr:Datum:Temp:Abs-Feuchte:Windchill:Wind:
Aussen-T/F 651 24-07-2020 06:10:00 15.8 C 10.36 g/m*3 15.8 C 0 km/h
652 24-07-2020 06:15:00 15.7 C 10.3 g/m*3 15.7 C 0 km/h
653 24-07-2020 06:20:00 15.7 C 10.3 g/m*3 15.7 C 0 km/h
654 24-07-2020 06:25:00 15.7 C 10.3 g/m*3 15.7 C 0 km/h
655 24-07-2020 06:30:00 15.7 C 10.3 g/m*3 15.7 C 0 km/h
656 24-07-2020 06:35:00 15.7 C 10.3 g/m*3 15.7 C 0 km/h
657 24-07-2020 06:40:00 15.7 C 10.3 g/m*3 15.7 C 0 km/h
658 24-07-2020 06:45:00 15.8 C 10.5 g/m*3 15.8 C 1.6 km/h
659 24-07-2020 06:50:00 15.9 C 10.56 g/m*3 15.9 C 0 km/h
660 24-07-2020 06:55:00 16.1 C 10.83 g/m*3 16.1 C 0 km/h
661 24-07-2020 07:00:00 16.2 C 10.76 g/m*3 16.2 C 1.6 km/h
662 24-07-2020 07:05:00 16.3 C 10.68 g/m*3 16.3 C 1.6 km/h
663 24-07-2020 07:10:00 16.5 C 10.81 g/m*3 16.5 C 4.8 km/h
664 24-07-2020 07:15:00 16.7 C 10.8 g/m*3 16.7 C 6.4 km/h
665 24-07-2020 07:20:00 16.9 C 10.79 g/m*3 16.9 C 4.8 km/h
666 24-07-2020 07:25:00 17.1 C 10.92 g/m*3 17.1 C 3.2 km/h
667 24-07-2020 07:30:00 17.2 C 10.84 g/m*3 17.2 C 4.8 km/h
668 24-07-2020 07:35:00 17.3 C 10.75 g/m*3 17.3 C 4.8 km/h
669 24-07-2020 07:40:00 17.4 C 10.82 g/m*3 17.4 C 4.8 km/h
670 24-07-2020 07:45:00 17.6 C 10.95 g/m*3 17.6 C 1.6 km/h
671 24-07-2020 07:50:00 17.6 C 10.95 g/m*3 17.6 C 6.4 km/h
672 24-07-2020 07:55:00 17.7 C 11.01 g/m*3 17.7 C 4.8 km/h
673 24-07-2020 08:00:00 17.8 C 11.08 g/m*3 17.8 C 4.8 km/h
674 24-07-2020 08:05:00 17.9 C 10.99 g/m*3 17.9 C 6.4 km/h
675 24-07-2020 08:10:00 18 C 10.91 g/m*3 18 C 8.1 km/h
Sensor: Nr:Datum:Temp:Abs-Feuchte:Windchill:Wind:
Aussen-T/F 676 24-07-2020 08:15:00 18.2 C 11.04 g/m*3 18.2 C 6.4 km/h
677 24-07-2020 08:20:00 18.3 C 10.94 g/m*3 18.3 C 8.1 km/h
678 24-07-2020 08:25:00 18.4 C 10.85 g/m*3 18.4 C 8.1 km/h
679 24-07-2020 08:30:00 18.6 C 10.98 g/m*3 18.6 C 6.4 km/h
680 24-07-2020 08:35:00 18.6 C 10.98 g/m*3 18.6 C 11.3 km/h
681 24-07-2020 08:40:00 18.7 C 11.05 g/m*3 18.7 C 11.3 km/h
682 24-07-2020 08:45:00 18.8 C 10.95 g/m*3 18.8 C 9.7 km/h
683 24-07-2020 08:50:00 18.9 C 11.02 g/m*3 18.9 C 6.4 km/h
684 24-07-2020 08:55:00 19 C 10.92 g/m*3 19 C 9.7 km/h
685 24-07-2020 09:00:00 19.2 C 11.05 g/m*3 19.2 C 6.4 km/h
686 24-07-2020 09:05:00 19.3 C 10.95 g/m*3 19.3 C 4.8 km/h
687 24-07-2020 09:10:00 19.5 C 11.08 g/m*3 19.5 C 4.8 km/h
688 24-07-2020 09:15:00 19.7 C 11.04 g/m*3 19.7 C 6.4 km/h
689 24-07-2020 09:20:00 19.9 C 11 g/m*3 19.9 C 6.4 km/h
690 24-07-2020 09:25:00 20.2 C 11.19 g/m*3 20.2 C 4.8 km/h
691 24-07-2020 09:30:00 20.4 C 11.14 g/m*3 20.4 C 4.8 km/h
692 24-07-2020 09:35:00 20.7 C 11.34 g/m*3 20.7 C 4.8 km/h
693 24-07-2020 09:40:00 20.9 C 10.75 g/m*3 20.9 C 1.6 km/h
694 24-07-2020 09:45:00 21.2 C 10.38 g/m*3 21.2 C 3.2 km/h
695 24-07-2020 09:50:00 21.4 C 10.5 g/m*3 21.4 C 3.2 km/h
696 24-07-2020 09:55:00 21.7 C 10.68 g/m*3 21.7 C 3.2 km/h
697 24-07-2020 10:00:00 21.9 C 10.61 g/m*3 21.9 C 1.6 km/h
698 24-07-2020 10:05:00 22.1 C 10.74 g/m*3 22.1 C 4.8 km/h
699 24-07-2020 10:10:00 22.3 C 10.47 g/m*3 22.3 C 1.6 km/h
700 24-07-2020 10:15:00 22.4 C 10.53 g/m*3 22.4 C 3.2 km/h
Sensor: Nr:Datum:Temp:Abs-Feuchte:Windchill:Wind:
Aussen-T/F 701 24-07-2020 10:20:00 22.4 C 10.33 g/m*3 22.4 C 3.2 km/h
702 24-07-2020 10:25:00 22.4 C 10.53 g/m*3 22.4 C 3.2 km/h
703 24-07-2020 10:30:00 22.3 C 10.47 g/m*3 22.3 C 4.8 km/h
704 24-07-2020 10:35:00 22.3 C 10.86 g/m*3 22.3 C 1.6 km/h
705 24-07-2020 10:40:00 22.3 C 10.47 g/m*3 22.3 C 1.6 km/h
706 24-07-2020 10:45:00 22.3 C 10.47 g/m*3 22.3 C 1.6 km/h
707 24-07-2020 10:50:00 22.3 C 10.66 g/m*3 22.3 C 0 km/h
708 24-07-2020 10:55:00 22.4 C 10.53 g/m*3 22.4 C 4.8 km/h
709 24-07-2020 11:00:00 22.7 C 10.51 g/m*3 22.7 C 1.6 km/h
710 24-07-2020 11:05:00 22.8 C 10.16 g/m*3 22.8 C 6.4 km/h
711 24-07-2020 11:10:00 22.9 C 10.63 g/m*3 22.9 C 6.4 km/h
712 24-07-2020 11:15:00 23.2 C 10.19 g/m*3 23.2 C 6.4 km/h
713 24-07-2020 11:20:00 23.3 C 10.45 g/m*3 23.3 C 3.2 km/h
714 24-07-2020 11:25:00 23.4 C 10.3 g/m*3 23.4 C 6.4 km/h
715 24-07-2020 11:30:00 23.4 C 10.51 g/m*3 23.4 C 9.7 km/h
716 24-07-2020 11:35:00 23.5 C 10.15 g/m*3 23.5 C 8.1 km/h
717 24-07-2020 11:40:00 23.6 C 10.63 g/m*3 23.6 C 6.4 km/h
718 24-07-2020 11:45:00 23.6 C 10.21 g/m*3 23.6 C 8.1 km/h
719 24-07-2020 11:50:00 23.5 C 10.36 g/m*3 23.5 C 6.4 km/h
720 24-07-2020 11:55:00 23.5 C 10.36 g/m*3 23.5 C 9.7 km/h
721 24-07-2020 12:00:00 23.6 C 10.63 g/m*3 23.6 C 6.4 km/h
722 24-07-2020 12:05:00 23.8 C 10.33 g/m*3 23.8 C 12.9 km/h
723 24-07-2020 12:10:00 24 C 9.79 g/m*3 24 C 14.5 km/h
724 24-07-2020 12:15:00 24.3 C 10.4 g/m*3 24.3 C 14.5 km/h
725 24-07-2020 12:20:00 24.8 C 9.79 g/m*3 24.8 C 19.3 km/h
Sensor: Nr:Datum:Temp:Abs-Feuchte:Windchill:Wind:
Aussen-T/F 726 24-07-2020 12:25:00 24.8 C 10.02 g/m*3 24.8 C 14.5 km/h
727 24-07-2020 12:30:00 24.7 C 9.51 g/m*3 24.7 C 19.3 km/h
728 24-07-2020 12:35:00 24.7 C 10.19 g/m*3 24.7 C 14.5 km/h
729 24-07-2020 12:40:00 24.8 C 9.79 g/m*3 24.8 C 12.9 km/h
730 24-07-2020 12:45:00 25.1 C 9.95 g/m*3 25.1 C 17.7 km/h
731 24-07-2020 12:50:00 25.3 C 9.83 g/m*3 25.3 C 12.9 km/h
732 24-07-2020 12:55:00 25.2 C 9.78 g/m*3 25.2 C 17.7 km/h
733 24-07-2020 13:00:00 25.2 C 9.54 g/m*3 25.2 C 11.3 km/h
734 24-07-2020 13:05:00 25.2 C 9.31 g/m*3 25.2 C 16.1 km/h
735 24-07-2020 13:10:00 25.5 C 9.23 g/m*3 25.5 C 16.1 km/h
736 24-07-2020 13:15:00 25.8 C 9.87 g/m*3 25.8 C 14.5 km/h
737 24-07-2020 13:20:00 25.7 C 9.58 g/m*3 25.7 C 8.1 km/h
738 24-07-2020 13:25:00 25.7 C 9.58 g/m*3 25.7 C 14.5 km/h
739 24-07-2020 13:30:00 25.8 C 9.39 g/m*3 25.8 C 11.3 km/h
740 24-07-2020 13:35:00 25.9 C 9.68 g/m*3 25.9 C 14.5 km/h
741 24-07-2020 13:40:00 25.8 C 9.63 g/m*3 25.8 C 6.4 km/h
742 24-07-2020 13:45:00 25.8 C 9.87 g/m*3 25.8 C 14.5 km/h
743 24-07-2020 13:50:00 25.7 C 10.29 g/m*3 25.7 C 9.7 km/h
744 24-07-2020 13:55:00 25.7 C 9.58 g/m*3 25.7 C 11.3 km/h
745 24-07-2020 14:00:00 25.7 C 10.29 g/m*3 25.7 C 9.7 km/h
746 24-07-2020 14:05:00 25.7 C 9.82 g/m*3 25.7 C 9.7 km/h
747 24-07-2020 14:10:00 25.7 C 9.58 g/m*3 25.7 C 12.9 km/h
748 24-07-2020 14:15:00 25.7 C 10.06 g/m*3 25.7 C 8.1 km/h
749 24-07-2020 14:20:00 25.7 C 9.58 g/m*3 25.7 C 11.3 km/h
750 24-07-2020 14:25:00 25.7 C 9.82 g/m*3 25.7 C 12.9 km/h
Sensor: Nr:Datum:Temp:Abs-Feuchte:Windchill:Wind:
Aussen-T/F 751 24-07-2020 14:30:00 25.6 C 9.76 g/m*3 25.6 C 11.3 km/h
752 24-07-2020 14:35:00 25.5 C 9.71 g/m*3 25.5 C 11.3 km/h
753 24-07-2020 14:40:00 25.4 C 9.65 g/m*3 25.4 C 4.8 km/h
754 24-07-2020 14:45:00 25.4 C 9.89 g/m*3 25.4 C 9.7 km/h
755 24-07-2020 14:50:00 25.3 C 9.6 g/m*3 25.3 C 9.7 km/h
756 24-07-2020 14:55:00 25.3 C 10.07 g/m*3 25.3 C 9.7 km/h
757 24-07-2020 15:00:00 25.3 C 10.07 g/m*3 25.3 C 11.3 km/h
758 24-07-2020 15:05:00 25.2 C 9.78 g/m*3 25.2 C 11.3 km/h
759 24-07-2020 15:10:00 25.2 C 10.24 g/m*3 25.2 C 8.1 km/h
760 24-07-2020 15:15:00 25.3 C 9.83 g/m*3 25.3 C 11.3 km/h
761 24-07-2020 15:20:00 25.1 C 9.95 g/m*3 25.1 C 11.3 km/h
762 24-07-2020 15:25:00 24.9 C 10.07 g/m*3 24.9 C 11.3 km/h
763 24-07-2020 15:30:00 24.7 C 9.96 g/m*3 24.7 C 11.3 km/h
764 24-07-2020 15:35:00 24.6 C 10.13 g/m*3 24.6 C 14.5 km/h
765 24-07-2020 15:40:00 24.6 C 10.13 g/m*3 24.6 C 9.7 km/h
766 24-07-2020 15:45:00 24.5 C 10.3 g/m*3 24.5 C 3.2 km/h
767 24-07-2020 15:50:00 24.5 C 10.07 g/m*3 24.5 C 6.4 km/h
768 24-07-2020 15:55:00 24.6 C 10.58 g/m*3 24.6 C 4.8 km/h
769 24-07-2020 16:00:00 24.7 C 10.19 g/m*3 24.7 C 8.1 km/h
770 24-07-2020 16:05:00 24.7 C 10.41 g/m*3 24.7 C 6.4 km/h
771 24-07-2020 16:10:00 24.8 C 10.47 g/m*3 24.8 C 6.4 km/h
772 24-07-2020 16:15:00 24.8 C 10.24 g/m*3 24.8 C 6.4 km/h
773 24-07-2020 16:20:00 24.8 C 10.47 g/m*3 24.8 C 8.1 km/h
774 24-07-2020 16:25:00 24.7 C 10.41 g/m*3 24.7 C 4.8 km/h
775 24-07-2020 16:30:00 24.8 C 10.47 g/m*3 24.8 C 9.7 km/h
Sensor: Nr:Datum:Temp:Abs-Feuchte:Windchill:Wind:
Aussen-T/F 776 24-07-2020 16:35:00 24.8 C 10.47 g/m*3 24.8 C 8.1 km/h
777 24-07-2020 16:40:00 24.9 C 10.53 g/m*3 24.9 C 11.3 km/h
778 24-07-2020 16:45:00 24.9 C 10.76 g/m*3 24.9 C 12.9 km/h
779 24-07-2020 16:50:00 25.1 C 10.65 g/m*3 25.1 C 9.7 km/h
780 24-07-2020 16:55:00 25.2 C 10.48 g/m*3 25.2 C 11.3 km/h
781 24-07-2020 17:00:00 25.4 C 10.36 g/m*3 25.4 C 8.1 km/h
782 24-07-2020 17:05:00 25.6 C 10.24 g/m*3 25.6 C 11.3 km/h
783 24-07-2020 17:10:00 25.6 C 10.24 g/m*3 25.6 C 8.1 km/h
784 24-07-2020 17:15:00 25.7 C 10.53 g/m*3 25.7 C 6.4 km/h
785 24-07-2020 17:20:00 25.7 C 10.29 g/m*3 25.7 C 6.4 km/h
786 24-07-2020 17:25:00 25.7 C 10.53 g/m*3 25.7 C 8.1 km/h
787 24-07-2020 17:30:00 25.7 C 10.29 g/m*3 25.7 C 6.4 km/h
788 24-07-2020 17:35:00 25.7 C 10.53 g/m*3 25.7 C 4.8 km/h
789 24-07-2020 17:40:00 25.7 C 10.53 g/m*3 25.7 C 6.4 km/h
790 24-07-2020 17:45:00 25.9 C 10.89 g/m*3 25.9 C 8.1 km/h
791 24-07-2020 17:50:00 26.2 C 10.83 g/m*3 26.2 C 8.1 km/h
792 24-07-2020 17:55:00 26.3 C 10.64 g/m*3 26.3 C 9.7 km/h
793 24-07-2020 18:00:00 26.3 C 10.89 g/m*3 26.3 C 8.1 km/h
794 24-07-2020 18:05:00 26.4 C 10.95 g/m*3 26.4 C 8.1 km/h
795 24-07-2020 18:10:00 26.4 C 10.95 g/m*3 26.4 C 12.9 km/h
796 24-07-2020 18:15:00 26.1 C 10.77 g/m*3 26.1 C 4.8 km/h
797 24-07-2020 18:20:00 25.8 C 10.59 g/m*3 25.8 C 9.7 km/h
798 24-07-2020 18:25:00 25.6 C 10.71 g/m*3 25.6 C 11.3 km/h
799 24-07-2020 18:30:00 25.3 C 10.77 g/m*3 25.3 C 9.7 km/h
800 24-07-2020 18:35:00 25.2 C 10.94 g/m*3 25.2 C 12.9 km/h
Sensor: Nr:Datum:Temp:Abs-Feuchte:Windchill:Wind:
Aussen-T/F 801 24-07-2020 18:40:00 25.1 C 10.88 g/m*3 25.1 C 8.1 km/h
802 24-07-2020 18:45:00 25.1 C 11.11 g/m*3 25.1 C 8.1 km/h
803 24-07-2020 18:50:00 24.9 C 11.22 g/m*3 24.9 C 12.9 km/h
804 24-07-2020 18:55:00 24.7 C 11.32 g/m*3 24.7 C 9.7 km/h
805 24-07-2020 19:00:00 24.6 C 11.48 g/m*3 24.6 C 9.7 km/h
806 24-07-2020 19:05:00 24.6 C 11.48 g/m*3 24.6 C 8.1 km/h
807 24-07-2020 19:10:00 24.5 C 11.64 g/m*3 24.5 C 9.7 km/h
808 24-07-2020 19:15:00 24.5 C 11.64 g/m*3 24.5 C 8.1 km/h
809 24-07-2020 19:20:00 24.4 C 11.57 g/m*3 24.4 C 12.9 km/h
810 24-07-2020 19:25:00 24.3 C 11.73 g/m*3 24.3 C 17.7 km/h
811 24-07-2020 19:30:00 24.2 C 11.66 g/m*3 24.2 C 11.3 km/h
812 24-07-2020 19:35:00 24 C 11.75 g/m*3 24 C 9.7 km/h
813 24-07-2020 19:40:00 23.9 C 11.68 g/m*3 23.9 C 6.4 km/h
814 24-07-2020 19:45:00 23.9 C 11.68 g/m*3 23.9 C 6.4 km/h
815 24-07-2020 19:50:00 24 C 11.75 g/m*3 24 C 6.4 km/h
816 24-07-2020 19:55:00 24.1 C 12.03 g/m*3 24.1 C 4.8 km/h
817 24-07-2020 20:00:00 24.2 C 12.1 g/m*3 24.2 C 4.8 km/h
818 24-07-2020 20:05:00 24.4 C 12.02 g/m*3 24.4 C 6.4 km/h
819 24-07-2020 20:10:00 24.5 C 11.86 g/m*3 24.5 C 4.8 km/h
820 24-07-2020 20:15:00 24.4 C 11.79 g/m*3 24.4 C 6.4 km/h
821 24-07-2020 20:20:00 24.3 C 11.95 g/m*3 24.3 C 4.8 km/h
822 24-07-2020 20:25:00 24.2 C 11.88 g/m*3 24.2 C 3.2 km/h
823 24-07-2020 20:30:00 24.1 C 11.6 g/m*3 24.1 C 1.6 km/h
824 24-07-2020 20:35:00 23.9 C 11.9 g/m*3 23.9 C 1.6 km/h
825 24-07-2020 20:40:00 23.8 C 12.05 g/m*3 23.8 C 1.6 km/h
Sensor: Nr:Datum:Temp:Abs-Feuchte:Windchill:Wind:
Aussen-T/F 826 24-07-2020 20:45:00 23.6 C 12.34 g/m*3 23.6 C 1.6 km/h
827 24-07-2020 20:50:00 23.2 C 12.27 g/m*3 23.2 C 1.6 km/h
828 24-07-2020 20:55:00 22.8 C 11.99 g/m*3 22.8 C 3.2 km/h
829 24-07-2020 21:00:00 22.4 C 11.92 g/m*3 22.4 C 4.8 km/h
830 24-07-2020 21:05:00 21.9 C 11.77 g/m*3 21.9 C 6.4 km/h
831 24-07-2020 21:10:00 21.6 C 11.76 g/m*3 21.6 C 8.1 km/h
832 24-07-2020 21:15:00 21.3 C 11.93 g/m*3 21.3 C 6.4 km/h
833 24-07-2020 21:20:00 21.2 C 11.86 g/m*3 21.2 C 6.4 km/h
834 24-07-2020 21:25:00 21 C 11.91 g/m*3 21 C 6.4 km/h
835 24-07-2020 21:30:00 20.9 C 11.84 g/m*3 20.9 C 4.8 km/h
836 24-07-2020 21:35:00 20.8 C 11.95 g/m*3 20.8 C 3.2 km/h
837 24-07-2020 21:40:00 20.7 C 11.88 g/m*3 20.7 C 6.4 km/h
838 24-07-2020 21:45:00 20.6 C 11.99 g/m*3 20.6 C 6.4 km/h
839 24-07-2020 21:50:00 20.6 C 11.99 g/m*3 20.6 C 4.8 km/h
840 24-07-2020 21:55:00 20.6 C 11.81 g/m*3 20.6 C 4.8 km/h
841 24-07-2020 22:00:00 20.6 C 11.99 g/m*3 20.6 C 1.6 km/h
842 24-07-2020 22:05:00 20.6 C 12.17 g/m*3 20.6 C 3.2 km/h
843 24-07-2020 22:10:00 20.6 C 11.99 g/m*3 20.6 C 3.2 km/h
844 24-07-2020 22:15:00 20.6 C 11.99 g/m*3 20.6 C 1.6 km/h
845 24-07-2020 22:20:00 20.7 C 12.06 g/m*3 20.7 C 3.2 km/h
846 24-07-2020 22:25:00 20.8 C 12.13 g/m*3 20.8 C 1.6 km/h
847 24-07-2020 22:30:00 20.8 C 11.95 g/m*3 20.8 C 1.6 km/h
848 24-07-2020 22:35:00 20.9 C 12.02 g/m*3 20.9 C 3.2 km/h
849 24-07-2020 22:40:00 21 C 12.27 g/m*3 21 C 4.8 km/h
850 24-07-2020 22:45:00 21.1 C 12.34 g/m*3 21.1 C 4.8 km/h
Sensor: Nr:Datum:Temp:Abs-Feuchte:Windchill:Wind:
Aussen-T/F 851 24-07-2020 22:50:00 21.2 C 12.42 g/m*3 21.2 C 1.6 km/h
852 24-07-2020 22:55:00 21.3 C 12.49 g/m*3 21.3 C 4.8 km/h
853 24-07-2020 23:00:00 21.4 C 12.56 g/m*3 21.4 C 8.1 km/h
854 24-07-2020 23:05:00 21.4 C 12.56 g/m*3 21.4 C 6.4 km/h
855 24-07-2020 23:10:00 21.4 C 12.56 g/m*3 21.4 C 11.3 km/h
856 24-07-2020 23:15:00 21.4 C 12.56 g/m*3 21.4 C 17.7 km/h
857 24-07-2020 23:20:00 21.4 C 12.56 g/m*3 21.4 C 6.4 km/h
858 24-07-2020 23:25:00 21.3 C 12.68 g/m*3 21.3 C 1.6 km/h
859 24-07-2020 23:30:00 21.2 C 12.79 g/m*3 21.2 C 9.7 km/h
860 24-07-2020 23:35:00 21.2 C 12.79 g/m*3 21.2 C 6.4 km/h
861 24-07-2020 23:40:00 21.1 C 12.9 g/m*3 21.1 C 6.4 km/h
862 24-07-2020 23:45:00 20.9 C 12.75 g/m*3 20.9 C 1.6 km/h
863 24-07-2020 23:50:00 20.8 C 12.86 g/m*3 20.8 C 1.6 km/h
864 24-07-2020 23:55:00 20.6 C 12.89 g/m*3 20.6 C 1.6 km/h

Legende:
   Min
   Max


Maximal/Minimal-Werte vom 22.07.2020 - 24.07.2020

Sensor Min Max Avg
Temp
(Aussen-T/F)
9.1 °C
22-07-2020  05:45:00
28.5 °C
23-07-2020  18:00:00
19.06 °C
Abs-Feuchte
(Aussen-T/F)
6.86 g/m*3
22-07-2020  12:45:00
12.9 g/m*3
24-07-2020  23:40:00
9.45 g/m*3
Windchill
(Aussen-T/F)
9.1 C
22-07-2020  05:45:00
28.5 C
23-07-2020  18:00:00
19.04 C

Die Daten stammen von einer Davis Vantage Pro 2 Wetter-Station und werden unter Linux mit der Software wview2wettercgi und aufbereitet. Alle Angaben erfolgen ohne Gewähr für ihre Vollständigkeit oder Richtigkeit.
Kontakt: Rainer Krienke krienke@uni-koblenz.de . Meine Webseiten an der Uni Koblenz oder privat.
Version: $Revision: 0.78 $